createdAt,value
2022-07-30T00:00:49.226Z,9.90
2022-07-30T00:03:16.162Z,5.30
2022-07-30T00:05:43.248Z,5.30
2022-07-30T00:08:10.180Z,4.73
2022-07-30T00:10:37.032Z,8.90
2022-07-30T00:13:03.894Z,8.30
2022-07-30T00:15:30.718Z,11.37
2022-07-30T00:17:57.652Z,7.27
2022-07-30T00:20:27.950Z,5.93
2022-07-30T00:22:55.100Z,6.63
2022-07-30T00:25:21.958Z,10.70
2022-07-30T00:27:48.915Z,8.73
2022-07-30T00:30:15.745Z,11.33
2022-07-30T00:32:42.563Z,9.93
2022-07-30T00:35:09.455Z,5.83
2022-07-30T00:37:36.272Z,5.47
2022-07-30T00:40:03.541Z,9.73
2022-07-30T00:42:31.145Z,12.30
2022-07-30T00:44:58.495Z,10.10
2022-07-30T00:47:25.436Z,11.47
2022-07-30T00:49:52.316Z,14.70
2022-07-30T00:52:19.100Z,5.73
2022-07-30T00:54:45.957Z,7.80
2022-07-30T00:57:12.902Z,7.40
2022-07-30T00:59:39.781Z,6.40
2022-07-30T01:02:06.665Z,10.53
2022-07-30T01:04:33.853Z,10.50
2022-07-30T01:07:01.021Z,9.30
2022-07-30T01:09:28.018Z,21.73
2022-07-30T01:11:55.565Z,13.80
2022-07-30T01:14:22.700Z,8.50
2022-07-30T01:16:49.584Z,10.20
2022-07-30T01:19:35.100Z,7.50
2022-07-30T01:22:01.929Z,6.40
2022-07-30T01:24:28.759Z,10.60
2022-07-30T01:26:55.605Z,6.63
2022-07-30T01:29:22.494Z,6.63
2022-07-30T01:31:49.395Z,7.03
2022-07-30T01:34:16.409Z,13.60
2022-07-30T01:36:43.297Z,9.37
2022-07-30T01:39:10.085Z,6.40
2022-07-30T01:41:37.046Z,9.93
2022-07-30T01:44:03.901Z,8.60
2022-07-30T01:46:30.777Z,8.50
2022-07-30T01:48:57.745Z,8.33
2022-07-30T01:51:24.667Z,15.50
2022-07-30T01:53:51.567Z,9.13
2022-07-30T01:56:18.483Z,8.83
2022-07-30T01:58:51.830Z,9.77
2022-07-30T02:01:22.969Z,9.97
2022-07-30T02:03:50.154Z,9.30
2022-07-30T02:06:17.136Z,10.73
2022-07-30T02:08:44.048Z,10.60
2022-07-30T02:11:10.894Z,11.07
2022-07-30T02:13:37.660Z,12.00
2022-07-30T02:16:04.566Z,10.70
2022-07-30T02:18:31.622Z,8.40
2022-07-30T02:20:58.518Z,11.80
2022-07-30T02:23:25.376Z,13.43
2022-07-30T02:25:52.183Z,8.63
2022-07-30T02:28:18.985Z,10.30
2022-07-30T02:30:46.043Z,15.07
2022-07-30T02:33:13.009Z,10.03
2022-07-30T02:35:39.827Z,10.53
2022-07-30T02:38:06.698Z,7.60
2022-07-30T02:40:33.480Z,7.20
2022-07-30T02:43:02.559Z,8.60
2022-07-30T02:45:29.489Z,8.63
2022-07-30T02:47:56.339Z,10.30
2022-07-30T02:50:23.201Z,14.93
2022-07-30T02:52:50.055Z,7.33
2022-07-30T02:55:17.019Z,9.43
2022-07-30T02:57:43.978Z,8.43
2022-07-30T03:00:10.857Z,9.20
2022-07-30T03:02:37.713Z,10.20
2022-07-30T03:05:06.208Z,13.83
2022-07-30T03:07:33.198Z,17.13
2022-07-30T03:10:00.634Z,16.33
2022-07-30T03:12:27.425Z,20.03
2022-07-30T03:14:54.292Z,14.70
2022-07-30T03:17:21.104Z,18.87
2022-07-30T03:19:47.975Z,15.10
2022-07-30T03:22:14.821Z,12.97
2022-07-30T03:24:41.654Z,19.77
2022-07-30T03:27:10.552Z,18.27
2022-07-30T03:29:37.412Z,17.80
2022-07-30T03:32:04.292Z,15.27
2022-07-30T03:34:31.084Z,18.90
2022-07-30T03:36:58.121Z,16.80
2022-07-30T03:39:25.060Z,15.57
2022-07-30T03:41:51.816Z,18.33
2022-07-30T03:44:20.133Z,17.83
2022-07-30T03:46:47.100Z,14.03
2022-07-30T03:49:13.968Z,14.23
2022-07-30T03:51:40.858Z,10.57
2022-07-30T03:54:13.263Z,11.97
2022-07-30T03:56:40.902Z,13.83
2022-07-30T03:59:08.193Z,21.60
2022-07-30T04:01:35.078Z,20.33
2022-07-30T04:04:02.083Z,18.50
2022-07-30T04:06:28.947Z,21.77
2022-07-30T04:08:55.944Z,13.77
2022-07-30T04:11:41.722Z,16.70
2022-07-30T04:14:08.986Z,26.63
2022-07-30T04:16:39.686Z,11.53
2022-07-30T04:19:09.691Z,17.47
2022-07-30T04:21:36.472Z,17.10
2022-07-30T04:24:04.996Z,12.40
2022-07-30T04:26:33.050Z,13.97
2022-07-30T04:28:59.864Z,15.13
2022-07-30T04:31:28.294Z,13.40
2022-07-30T04:33:55.267Z,10.80
2022-07-30T04:36:25.759Z,12.17
2022-07-30T04:38:52.596Z,15.83
2022-07-30T04:41:19.433Z,16.43
2022-07-30T04:43:46.282Z,14.13
2022-07-30T04:46:13.098Z,12.10
2022-07-30T04:48:40.125Z,10.90
2022-07-30T04:51:06.985Z,11.40
2022-07-30T04:53:33.820Z,17.50
2022-07-30T04:56:01.448Z,10.00
2022-07-30T04:58:28.341Z,14.00
2022-07-30T05:00:55.146Z,22.43
2022-07-30T05:03:22.223Z,15.97
2022-07-30T05:05:51.115Z,13.63
2022-07-30T05:08:19.900Z,17.17
2022-07-30T05:10:46.779Z,17.10
2022-07-30T05:13:14.320Z,14.83
2022-07-30T05:15:41.359Z,15.90
2022-07-30T05:18:09.034Z,12.57
2022-07-30T05:20:35.943Z,16.30
2022-07-30T05:23:02.853Z,11.57
2022-07-30T05:25:29.706Z,15.20
2022-07-30T05:27:58.260Z,23.13
2022-07-30T05:30:27.485Z,14.53
2022-07-30T05:32:54.791Z,13.73
2022-07-30T05:35:23.002Z,22.10
2022-07-30T05:37:49.795Z,15.03
2022-07-30T05:40:16.735Z,14.47
2022-07-30T05:42:43.557Z,14.63
2022-07-30T05:45:10.391Z,17.87
2022-07-30T05:47:37.618Z,10.70
2022-07-30T05:50:05.352Z,16.40
2022-07-30T05:52:32.405Z,21.47
2022-07-30T05:54:59.280Z,17.23
2022-07-30T05:57:29.134Z,15.90
2022-07-30T05:59:55.953Z,14.50
2022-07-30T06:02:24.245Z,12.83
2022-07-30T06:04:51.564Z,14.73
2022-07-30T06:07:18.447Z,15.00
2022-07-30T06:09:45.365Z,19.83
2022-07-30T06:12:12.185Z,16.60
2022-07-30T06:14:38.949Z,12.87
2022-07-30T06:17:05.831Z,15.77
2022-07-30T06:19:32.619Z,28.03
2022-07-30T06:22:05.254Z,17.93
2022-07-30T06:24:34.005Z,12.17
2022-07-30T06:27:01.137Z,16.43
2022-07-30T06:29:28.229Z,20.80
2022-07-30T06:31:55.166Z,17.17
2022-07-30T06:34:22.076Z,16.47
2022-07-30T06:36:48.868Z,21.03
2022-07-30T06:39:56.592Z,11.40
2022-07-30T06:42:02.753Z,14.33
2022-07-30T06:44:30.171Z,12.97
2022-07-30T06:46:56.959Z,12.97
2022-07-30T06:49:23.791Z,10.83
2022-07-30T06:51:50.737Z,13.23
2022-07-30T06:54:17.520Z,21.83
2022-07-30T06:56:44.588Z,17.53
2022-07-30T06:59:11.440Z,20.23
2022-07-30T07:01:38.489Z,13.60
2022-07-30T07:04:05.431Z,16.17
2022-07-30T07:06:32.309Z,18.03
2022-07-30T07:08:59.148Z,11.37
2022-07-30T07:11:27.121Z,17.30
2022-07-30T07:13:53.957Z,22.23
2022-07-30T07:16:25.041Z,22.87
2022-07-30T07:18:52.407Z,13.73
2022-07-30T07:21:19.272Z,16.63
2022-07-30T07:23:48.492Z,19.00
2022-07-30T07:26:15.256Z,13.00
2022-07-30T07:28:42.065Z,13.87
2022-07-30T07:31:09.010Z,11.00
2022-07-30T07:33:35.921Z,10.60
2022-07-30T07:36:02.777Z,8.20
2022-07-30T07:38:29.651Z,11.87
2022-07-30T07:40:56.457Z,10.13
2022-07-30T07:43:25.350Z,11.53
2022-07-30T07:45:52.323Z,6.30
2022-07-30T07:48:19.384Z,12.53
2022-07-30T07:50:46.188Z,9.30
2022-07-30T07:53:12.994Z,9.90
2022-07-30T07:55:39.744Z,9.27
2022-07-30T07:58:07.874Z,12.20
2022-07-30T08:00:34.895Z,12.10
2022-07-30T08:03:01.638Z,13.10
2022-07-30T08:05:56.820Z,6.50
2022-07-30T08:08:15.252Z,18.40
2022-07-30T08:10:42.214Z,9.30
2022-07-30T08:13:49.243Z,11.63
2022-07-30T08:15:56.433Z,8.47
2022-07-30T08:18:23.243Z,9.27
2022-07-30T08:20:50.509Z,10.93
2022-07-30T08:23:18.342Z,18.37
2022-07-30T08:25:45.140Z,11.63
2022-07-30T08:28:35.379Z,11.10
2022-07-30T08:31:00.616Z,12.73
2022-07-30T08:33:29.265Z,11.53
2022-07-30T08:36:02.860Z,12.43
2022-07-30T08:38:31.531Z,14.87
2022-07-30T08:40:58.371Z,25.80
2022-07-30T08:43:25.545Z,18.93
2022-07-30T08:45:52.452Z,14.80
2022-07-30T08:48:19.194Z,20.80
2022-07-30T08:50:46.321Z,14.57
2022-07-30T08:53:13.119Z,21.33
2022-07-30T08:55:40.496Z,14.00
2022-07-30T08:58:07.362Z,12.47
2022-07-30T09:00:34.367Z,8.90
2022-07-30T09:03:01.653Z,14.57
2022-07-30T09:05:28.511Z,13.60
2022-07-30T09:07:55.646Z,16.17
2022-07-30T09:10:22.379Z,15.67
2022-07-30T09:12:49.635Z,14.27
2022-07-30T09:15:16.673Z,12.43
2022-07-30T09:17:43.425Z,21.20
2022-07-30T09:20:10.204Z,24.17
2022-07-30T09:22:36.995Z,18.87
2022-07-30T09:25:03.789Z,21.33
2022-07-30T09:27:30.685Z,14.77
2022-07-30T09:29:57.783Z,19.20
2022-07-30T09:32:24.550Z,16.30
2022-07-30T09:34:51.292Z,19.10
2022-07-30T09:37:18.282Z,19.80
2022-07-30T09:39:56.333Z,17.20
2022-07-30T09:42:26.964Z,24.90
2022-07-30T09:44:53.717Z,25.60
2022-07-30T09:47:20.451Z,13.70
2022-07-30T09:49:47.449Z,17.30
2022-07-30T09:52:14.184Z,16.83
2022-07-30T09:54:40.981Z,12.23
2022-07-30T09:57:26.145Z,18.83
2022-07-30T09:59:54.780Z,12.80
2022-07-30T10:02:21.777Z,16.80
2022-07-30T10:04:48.665Z,20.27
2022-07-30T10:07:15.428Z,13.47
2022-07-30T10:09:52.694Z,16.27
2022-07-30T10:12:19.436Z,19.33
2022-07-30T10:14:50.976Z,14.73
2022-07-30T10:17:17.784Z,15.60
2022-07-30T10:19:44.694Z,14.90
2022-07-30T10:22:14.015Z,16.30
2022-07-30T10:24:44.136Z,15.60
2022-07-30T10:27:12.027Z,10.43
2022-07-30T10:29:42.817Z,23.77
2022-07-30T10:32:09.948Z,15.20
2022-07-30T10:34:36.699Z,15.27
2022-07-30T10:37:09.312Z,11.57
2022-07-30T10:39:39.244Z,15.20
2022-07-30T10:42:06.013Z,14.80
2022-07-30T10:44:33.555Z,16.33
2022-07-30T10:47:07.072Z,9.90
2022-07-30T10:49:41.338Z,16.27
2022-07-30T10:52:09.904Z,15.90
2022-07-30T10:54:39.504Z,12.90
2022-07-30T10:57:06.907Z,9.63
2022-07-30T10:59:34.375Z,13.03
2022-07-30T11:02:03.865Z,17.50
2022-07-30T11:04:30.948Z,15.70
2022-07-30T11:06:57.889Z,12.33
2022-07-30T11:09:25.173Z,13.47
2022-07-30T11:12:02.285Z,11.87
2022-07-30T11:14:33.452Z,17.40
2022-07-30T11:17:00.192Z,15.43
2022-07-30T11:19:56.542Z,16.07
2022-07-30T11:22:15.721Z,20.70
2022-07-30T11:24:42.506Z,20.87
2022-07-30T11:27:12.202Z,19.10
2022-07-30T11:29:50.872Z,17.67
2022-07-30T11:32:18.288Z,18.93
2022-07-30T11:34:45.125Z,14.60
2022-07-30T11:37:19.153Z,21.08
2022-07-30T11:39:49.538Z,21.27
2022-07-30T11:42:16.294Z,19.55
2022-07-30T11:44:46.948Z,22.13
2022-07-30T11:47:13.798Z,27.13
2022-07-30T11:49:40.525Z,32.50
2022-07-30T11:52:07.357Z,26.63
2022-07-30T11:54:34.155Z,28.53
2022-07-30T11:57:04.624Z,26.50
2022-07-30T11:59:31.746Z,22.90
2022-07-30T12:02:02.185Z,28.67
2022-07-30T12:04:29.276Z,36.60
2022-07-30T12:06:56.106Z,27.45
2022-07-30T12:09:23.507Z,30.13
2022-07-30T12:11:54.171Z,21.52
2022-07-30T12:14:20.967Z,23.05
2022-07-30T12:16:47.762Z,31.58
2022-07-30T12:19:14.551Z,17.17
2022-07-30T12:21:41.376Z,18.10
2022-07-30T12:24:09.958Z,16.80
2022-07-30T12:26:36.755Z,25.58
2022-07-30T12:29:03.477Z,19.27
2022-07-30T12:31:30.301Z,28.45
2022-07-30T12:33:59.200Z,18.55
2022-07-30T12:36:26.419Z,14.52
2022-07-30T12:38:54.762Z,16.17
2022-07-30T12:41:22.572Z,15.80
2022-07-30T12:43:49.693Z,18.25
2022-07-30T12:46:16.800Z,12.25
2022-07-30T12:48:43.617Z,15.35
2022-07-30T12:51:13.398Z,14.00
2022-07-30T12:53:40.814Z,12.63
2022-07-30T12:56:07.555Z,14.50
2022-07-30T12:58:34.296Z,17.60
2022-07-30T13:01:01.241Z,11.00
2022-07-30T13:03:28.064Z,13.13
2022-07-30T13:05:55.420Z,10.95
2022-07-30T13:08:22.652Z,11.70
2022-07-30T13:10:49.363Z,12.60
2022-07-30T13:13:16.217Z,14.15
2022-07-30T13:15:46.427Z,12.57
2022-07-30T13:18:22.075Z,14.10
2022-07-30T13:20:48.930Z,17.58
2022-07-30T13:23:15.745Z,10.82
2022-07-30T13:25:42.531Z,20.25
2022-07-30T13:28:09.805Z,13.57
2022-07-30T13:30:36.610Z,11.13
2022-07-30T13:33:03.394Z,8.93
2022-07-30T13:35:30.316Z,15.60
2022-07-30T13:37:57.448Z,11.60
2022-07-30T13:40:24.193Z,11.77
2022-07-30T13:42:51.029Z,12.82
2022-07-30T13:45:17.931Z,13.82
2022-07-30T13:47:44.699Z,8.60
2022-07-30T13:50:11.620Z,9.27
2022-07-30T13:52:38.370Z,6.80
2022-07-30T13:55:05.155Z,8.05
2022-07-30T13:57:31.940Z,7.03
2022-07-30T13:59:58.702Z,15.95
2022-07-30T14:02:25.517Z,6.10
2022-07-30T14:04:55.035Z,5.97
2022-07-30T14:07:21.775Z,4.95
2022-07-30T14:09:54.059Z,4.72
2022-07-30T14:12:21.361Z,4.55
2022-07-30T14:14:48.195Z,9.00
2022-07-30T14:17:18.263Z,3.50
2022-07-30T14:19:45.444Z,4.05
2022-07-30T14:22:12.207Z,7.63
2022-07-30T14:24:40.209Z,5.15
2022-07-30T14:27:07.250Z,8.82
2022-07-30T14:29:34.027Z,4.07
2022-07-30T14:32:00.960Z,5.00
2022-07-30T14:34:28.547Z,4.25
2022-07-30T14:36:55.502Z,4.90
2022-07-30T14:39:22.919Z,5.72
2022-07-30T14:41:52.502Z,8.32
2022-07-30T14:44:24.055Z,7.82
2022-07-30T14:46:52.178Z,7.82
2022-07-30T14:49:20.255Z,6.82
2022-07-30T14:51:47.780Z,2.95
2022-07-30T14:54:14.686Z,5.30
2022-07-30T14:56:42.542Z,3.97
2022-07-30T14:59:09.477Z,4.88
2022-07-30T15:01:36.412Z,2.72
2022-07-30T15:04:03.243Z,6.97
2022-07-30T15:06:30.530Z,5.63
2022-07-30T15:08:57.510Z,6.10
2022-07-30T15:11:25.578Z,4.45
2022-07-30T15:13:52.739Z,4.40
2022-07-30T15:16:19.857Z,4.28
2022-07-30T15:18:47.030Z,3.40
2022-07-30T15:21:13.807Z,5.07
2022-07-30T15:23:40.866Z,7.15
2022-07-30T15:26:07.731Z,7.25
2022-07-30T15:28:37.549Z,3.03
2022-07-30T15:31:07.512Z,6.43
2022-07-30T15:33:36.123Z,7.15
2022-07-30T15:36:04.092Z,3.33
2022-07-30T15:38:31.084Z,4.10
2022-07-30T15:40:58.104Z,3.33
2022-07-30T15:43:24.921Z,6.38
2022-07-30T15:45:55.522Z,2.58
2022-07-30T15:48:26.874Z,10.40
2022-07-30T15:50:54.457Z,3.88
2022-07-30T15:53:21.356Z,2.70
2022-07-30T15:55:48.420Z,4.20
2022-07-30T15:58:15.287Z,6.30
2022-07-30T16:00:42.904Z,2.10
2022-07-30T16:03:10.026Z,8.15
2022-07-30T16:05:52.370Z,8.65
2022-07-30T16:08:19.354Z,5.50
2022-07-30T16:10:47.643Z,2.63
2022-07-30T16:13:14.693Z,4.20
2022-07-30T16:15:42.848Z,3.30
2022-07-30T16:18:11.050Z,4.15
2022-07-30T16:20:38.286Z,6.85
2022-07-30T16:23:09.147Z,6.13
2022-07-30T16:25:39.500Z,2.95
2022-07-30T16:28:08.411Z,3.30
2022-07-30T16:30:35.788Z,2.28
2022-07-30T16:33:17.606Z,2.15
2022-07-30T16:35:49.189Z,5.53
2022-07-30T16:38:18.414Z,2.50
2022-07-30T16:40:46.215Z,1.90
2022-07-30T16:43:15.543Z,6.88
2022-07-30T16:45:43.955Z,3.03
2022-07-30T16:48:14.315Z,2.88
2022-07-30T16:50:46.685Z,4.35
2022-07-30T16:53:14.630Z,3.25
2022-07-30T16:55:41.811Z,3.47
2022-07-30T16:58:08.739Z,2.33
2022-07-30T17:00:38.691Z,6.22
2022-07-30T17:03:07.310Z,4.40
2022-07-30T17:05:34.405Z,1.42
2022-07-30T17:08:11.012Z,3.47
2022-07-30T17:10:41.514Z,2.08
2022-07-30T17:13:09.113Z,2.97
2022-07-30T17:15:35.912Z,3.30
2022-07-30T17:18:02.902Z,2.47
2022-07-30T17:20:31.274Z,3.10
2022-07-30T17:23:00.257Z,4.32
2022-07-30T17:25:30.445Z,7.03
2022-07-30T17:27:58.440Z,1.98
2022-07-30T17:30:25.463Z,2.65
2022-07-30T17:32:52.522Z,2.20
2022-07-30T17:35:19.664Z,2.92
2022-07-30T17:37:46.576Z,2.70
2022-07-30T17:40:29.759Z,4.18
2022-07-30T17:43:03.831Z,1.88
2022-07-30T17:45:31.157Z,1.73
2022-07-30T17:47:58.227Z,2.20
2022-07-30T17:50:25.259Z,2.40
2022-07-30T17:52:52.379Z,1.55
2022-07-30T17:55:19.168Z,1.45
2022-07-30T17:57:46.016Z,3.47
2022-07-30T18:00:12.827Z,3.00
2022-07-30T18:02:39.666Z,2.35
2022-07-30T18:05:06.763Z,6.05
2022-07-30T18:07:34.642Z,1.70
2022-07-30T18:10:01.483Z,2.33
2022-07-30T18:12:28.549Z,7.70
2022-07-30T18:14:55.850Z,2.15
2022-07-30T18:17:22.647Z,5.57
2022-07-30T18:19:49.574Z,3.25
2022-07-30T18:22:17.366Z,3.75
2022-07-30T18:24:55.225Z,5.50
2022-07-30T18:27:22.044Z,4.43
2022-07-30T18:29:48.866Z,1.97
2022-07-30T18:32:15.825Z,3.53
2022-07-30T18:34:42.630Z,7.77
2022-07-30T18:37:16.756Z,2.53
2022-07-30T18:39:43.604Z,2.77
2022-07-30T18:42:10.427Z,3.53
2022-07-30T18:44:37.293Z,5.97
2022-07-30T18:47:04.148Z,5.60
2022-07-30T18:49:38.466Z,1.77
2022-07-30T18:52:06.054Z,1.50
2022-07-30T18:54:33.215Z,1.60
2022-07-30T18:56:59.992Z,3.93
2022-07-30T18:59:27.057Z,3.73
2022-07-30T19:01:54.030Z,3.80
2022-07-30T19:04:20.896Z,10.10
2022-07-30T19:06:48.048Z,1.93
2022-07-30T19:09:17.672Z,2.37
2022-07-30T19:11:45.053Z,4.47
2022-07-30T19:14:13.425Z,2.30
2022-07-30T19:16:40.352Z,3.87
2022-07-30T19:19:07.158Z,4.00
2022-07-30T19:21:34.033Z,2.30
2022-07-30T19:24:01.080Z,7.43
2022-07-30T19:26:28.611Z,2.30
2022-07-30T19:28:55.493Z,3.40
2022-07-30T19:31:27.364Z,8.00
2022-07-30T19:33:54.269Z,2.43
2022-07-30T19:36:21.353Z,2.70
2022-07-30T19:38:48.989Z,4.77
2022-07-30T19:41:15.923Z,3.30
2022-07-30T19:43:42.805Z,6.37
2022-07-30T19:46:09.732Z,3.10
2022-07-30T19:48:38.070Z,4.43
2022-07-30T19:51:05.630Z,2.83
2022-07-30T19:53:42.624Z,4.20
2022-07-30T19:56:11.338Z,8.73
2022-07-30T19:58:40.110Z,6.57
2022-07-30T20:01:08.320Z,14.83
2022-07-30T20:03:35.733Z,3.40
2022-07-30T20:06:03.934Z,3.60
2022-07-30T20:08:34.221Z,3.13
2022-07-30T20:11:02.636Z,5.43
2022-07-30T20:16:17.385Z,3.10
2022-07-30T20:18:46.265Z,2.77
2022-07-30T20:21:15.377Z,3.70
2022-07-30T20:23:42.939Z,4.40
2022-07-30T20:26:13.063Z,5.10
2022-07-30T20:28:40.501Z,3.43
2022-07-30T20:31:07.486Z,2.70
2022-07-30T20:33:37.843Z,2.03
2022-07-30T20:36:05.925Z,4.53
2022-07-30T20:38:39.015Z,2.57
2022-07-30T20:41:09.813Z,3.03
2022-07-30T20:43:51.683Z,5.10
2022-07-30T20:46:19.282Z,3.80
2022-07-30T20:48:46.258Z,5.97
2022-07-30T20:51:13.108Z,4.37
2022-07-30T20:53:41.975Z,4.10
2022-07-30T20:56:14.777Z,3.60
2022-07-30T21:01:30.812Z,3.80
2022-07-30T21:03:59.085Z,8.13
2022-07-30T21:06:26.398Z,5.23
2022-07-30T21:08:55.497Z,2.47
2022-07-30T21:11:23.620Z,2.27
2022-07-30T21:13:50.685Z,2.60
2022-07-30T21:16:22.746Z,4.40
2022-07-30T21:18:52.992Z,3.20
2022-07-30T21:21:30.736Z,2.67
2022-07-30T21:24:05.559Z,7.90
2022-07-30T21:26:32.692Z,4.40
2022-07-30T21:29:01.652Z,2.80
2022-07-30T21:32:00.596Z,3.60
2022-07-30T21:34:17.433Z,3.47
2022-07-30T21:36:45.038Z,2.53
2022-07-30T21:39:13.611Z,2.67
2022-07-30T21:41:43.668Z,3.30
2022-07-30T21:44:15.687Z,2.40
2022-07-30T21:46:46.679Z,2.93
2022-07-30T21:49:15.796Z,2.80
2022-07-30T21:51:43.040Z,2.27
2022-07-30T21:54:13.032Z,2.10
2022-07-30T21:56:44.108Z,3.00
2022-07-30T21:59:11.503Z,5.90
2022-07-30T22:01:39.033Z,3.90
2022-07-30T22:04:14.780Z,1.83
2022-07-30T22:06:43.901Z,3.50
2022-07-30T22:09:18.866Z,2.97
2022-07-30T22:12:02.307Z,5.10
2022-07-30T22:14:37.481Z,1.80
2022-07-30T22:17:05.134Z,2.70
2022-07-30T22:19:32.139Z,1.80
2022-07-30T22:22:26.070Z,4.57
2022-07-30T22:24:51.132Z,3.63
2022-07-30T22:27:22.002Z,1.63
2022-07-30T22:29:51.193Z,5.10
2022-07-30T22:32:29.876Z,1.93
2022-07-30T22:34:58.742Z,1.90
2022-07-30T22:37:31.347Z,2.50
2022-07-30T22:40:03.839Z,4.50
2022-07-30T22:42:49.861Z,4.53
2022-07-30T22:45:42.238Z,1.70
2022-07-30T22:48:10.796Z,4.20
2022-07-30T22:50:58.989Z,1.80
2022-07-30T22:54:11.734Z,1.57
2022-07-30T22:56:16.156Z,1.70
2022-07-30T22:58:44.561Z,2.50
2022-07-30T23:01:12.732Z,5.20
2022-07-30T23:03:42.066Z,1.93
2022-07-30T23:06:14.484Z,1.87
2022-07-30T23:08:58.120Z,1.63
2022-07-30T23:11:26.313Z,1.50
2022-07-30T23:12:17.247Z,8.00
2022-07-30T23:12:26.632Z,2.30
2022-07-30T23:14:06.553Z,2.27
2022-07-30T23:16:34.431Z,2.63
2022-07-30T23:19:02.948Z,4.90
2022-07-30T23:21:32.583Z,7.33
2022-07-30T23:24:00.508Z,4.70
2022-07-30T23:26:28.087Z,4.93
2022-07-30T23:28:55.466Z,3.40
2022-07-30T23:31:26.806Z,5.73
2022-07-30T23:33:55.056Z,2.90
2022-07-30T23:36:34.847Z,4.53
2022-07-30T23:39:06.104Z,2.20
2022-07-30T23:41:48.946Z,10.23
2022-07-30T23:44:21.534Z,2.73
2022-07-30T23:46:50.528Z,3.50
2022-07-30T23:49:19.061Z,2.20
2022-07-30T23:51:46.486Z,4.47
2022-07-30T23:54:13.856Z,6.13
2022-07-30T23:56:42.260Z,4.60
2022-07-30T23:59:11.720Z,3.27
